createdAt,value
2023-01-18T00:01:53.581Z,36.56
2023-01-18T00:04:20.396Z,36.47
2023-01-18T00:06:48.297Z,36.46
2023-01-18T00:09:15.226Z,36.17
2023-01-18T00:11:44.417Z,36.16
2023-01-18T00:14:11.314Z,36.62
2023-01-18T00:16:42.561Z,36.62
2023-01-18T00:19:13.428Z,36.81
2023-01-18T00:21:40.872Z,36.51
2023-01-18T00:24:11.425Z,36.92
2023-01-18T00:26:38.364Z,36.66
2023-01-18T00:29:05.376Z,37.00
2023-01-18T00:31:32.594Z,37.18
2023-01-18T00:33:59.622Z,36.64
2023-01-18T00:36:27.278Z,37.23
2023-01-18T00:38:54.360Z,36.61
2023-01-18T00:41:22.151Z,37.04
2023-01-18T00:43:49.441Z,37.14
2023-01-18T00:46:17.888Z,37.44
2023-01-18T00:48:44.983Z,37.37
2023-01-18T00:51:13.220Z,37.14
2023-01-18T00:53:40.296Z,37.35
2023-01-18T00:56:09.041Z,37.31
2023-01-18T00:58:37.706Z,37.44
2023-01-18T01:01:05.695Z,37.25
2023-01-18T01:03:43.257Z,37.47
2023-01-18T01:06:24.373Z,37.58
2023-01-18T01:08:51.235Z,37.74
2023-01-18T01:11:18.037Z,37.93
2023-01-18T01:13:55.266Z,37.90
2023-01-18T01:16:31.890Z,37.75
2023-01-18T01:19:08.515Z,38.05
2023-01-18T01:21:44.497Z,37.88
2023-01-18T01:24:20.724Z,37.94
2023-01-18T01:26:47.601Z,37.96
2023-01-18T01:29:14.525Z,38.10
2023-01-18T01:31:41.327Z,37.94
2023-01-18T01:34:08.371Z,38.08
2023-01-18T01:36:35.270Z,38.22
2023-01-18T01:39:02.379Z,38.40
2023-01-18T01:41:31.026Z,38.00
2023-01-18T01:43:59.221Z,37.91
2023-01-18T01:46:33.268Z,37.95
2023-01-18T01:49:01.421Z,38.15
2023-01-18T01:51:28.688Z,37.80
2023-01-18T01:53:58.819Z,38.06
2023-01-18T01:56:26.116Z,37.89
2023-01-18T01:58:56.990Z,37.84
2023-01-18T02:01:23.953Z,38.22
2023-01-18T02:03:50.986Z,37.97
2023-01-18T02:06:30.586Z,38.24
2023-01-18T02:08:59.956Z,37.97
2023-01-18T02:11:26.983Z,37.89
2023-01-18T02:13:55.316Z,37.88
2023-01-18T02:16:23.417Z,38.07
2023-01-18T02:18:59.818Z,37.83
2023-01-18T02:21:35.071Z,38.12
2023-01-18T02:24:13.356Z,38.41
2023-01-18T02:26:50.449Z,38.23
2023-01-18T02:29:18.436Z,38.65
2023-01-18T02:31:52.426Z,38.72
2023-01-18T02:34:25.567Z,38.95
2023-01-18T02:37:02.334Z,38.98
2023-01-18T02:39:32.084Z,38.93
2023-01-18T02:42:14.572Z,38.65
2023-01-18T02:44:52.409Z,39.20
2023-01-18T02:47:19.450Z,39.03
2023-01-18T02:49:46.334Z,39.22
2023-01-18T02:52:23.162Z,39.21
2023-01-18T02:54:50.040Z,39.24
2023-01-18T02:57:18.305Z,38.98
2023-01-18T02:59:50.616Z,39.00
2023-01-18T03:02:19.652Z,38.86
2023-01-18T03:04:58.446Z,38.91
2023-01-18T03:07:27.334Z,38.72
2023-01-18T03:09:55.251Z,39.19
2023-01-18T03:12:28.901Z,39.21
2023-01-18T03:14:56.105Z,39.10
2023-01-18T03:17:28.991Z,38.97
2023-01-18T03:20:06.649Z,39.30
2023-01-18T03:22:45.727Z,39.37
2023-01-18T03:25:14.129Z,39.32
2023-01-18T03:27:52.961Z,39.21
2023-01-18T03:30:30.201Z,39.24
2023-01-18T03:33:06.776Z,39.04
2023-01-18T03:35:34.248Z,39.41
2023-01-18T03:38:01.121Z,39.54
2023-01-18T03:40:29.570Z,39.36
2023-01-18T03:42:59.852Z,39.50
2023-01-18T03:45:30.206Z,39.54
2023-01-18T03:47:57.164Z,39.65
2023-01-18T03:50:26.432Z,39.49
2023-01-18T03:52:56.589Z,39.42
2023-01-18T03:55:28.263Z,39.88
2023-01-18T03:57:55.195Z,40.00
2023-01-18T04:00:22.331Z,40.16
2023-01-18T04:02:49.725Z,40.10
2023-01-18T04:05:17.309Z,40.17
2023-01-18T04:07:44.281Z,40.00
2023-01-18T04:10:11.764Z,40.20
2023-01-18T04:12:38.541Z,40.23
2023-01-18T04:15:05.653Z,40.42
2023-01-18T04:17:32.472Z,40.49
2023-01-18T04:19:59.291Z,40.53
2023-01-18T04:22:26.135Z,40.56
2023-01-18T04:24:53.297Z,40.85
2023-01-18T04:27:20.171Z,40.56
2023-01-18T04:29:47.024Z,41.07
2023-01-18T04:32:13.840Z,40.80
2023-01-18T04:34:40.677Z,40.77
2023-01-18T04:37:07.425Z,40.73
2023-01-18T04:39:34.311Z,41.13
2023-01-18T04:42:01.148Z,40.81
2023-01-18T04:44:27.901Z,40.96
2023-01-18T04:46:54.708Z,41.22
2023-01-18T04:49:21.559Z,41.09
2023-01-18T04:51:48.362Z,41.04
2023-01-18T04:54:16.647Z,41.16
2023-01-18T04:56:43.523Z,40.87
2023-01-18T04:59:13.769Z,41.25
2023-01-18T05:01:40.613Z,41.32
2023-01-18T05:04:07.622Z,41.22
2023-01-18T05:06:34.531Z,41.44
2023-01-18T05:09:01.360Z,41.27
2023-01-18T05:11:28.115Z,41.13
2023-01-18T05:13:54.860Z,41.44
2023-01-18T05:16:22.952Z,41.41
2023-01-18T05:18:49.853Z,41.25
2023-01-18T05:21:16.749Z,41.44
2023-01-18T05:23:43.839Z,41.72
2023-01-18T05:26:15.434Z,41.58
2023-01-18T05:28:42.695Z,41.80
2023-01-18T05:31:09.633Z,41.57
2023-01-18T05:33:36.645Z,41.64
2023-01-18T05:36:03.903Z,41.89
2023-01-18T05:38:30.773Z,41.69
2023-01-18T05:40:57.888Z,41.75
2023-01-18T05:43:26.249Z,41.94
2023-01-18T05:45:53.087Z,42.20
2023-01-18T05:48:20.137Z,42.32
2023-01-18T05:50:48.729Z,42.48
2023-01-18T05:53:17.135Z,42.52
2023-01-18T05:55:44.835Z,42.47
2023-01-18T05:58:12.171Z,42.22
2023-01-18T06:00:39.013Z,41.81
2023-01-18T06:03:05.783Z,41.98
2023-01-18T06:05:32.581Z,41.94
2023-01-18T06:07:59.837Z,42.08
2023-01-18T06:10:26.729Z,41.88
2023-01-18T06:12:53.561Z,41.51
2023-01-18T06:15:20.282Z,42.01
2023-01-18T06:17:47.439Z,41.99
2023-01-18T06:20:14.491Z,41.81
2023-01-18T06:22:41.288Z,41.77
2023-01-18T06:25:10.272Z,41.45
2023-01-18T06:27:39.342Z,41.67
2023-01-18T06:30:07.191Z,41.18
2023-01-18T06:32:34.261Z,41.50
2023-01-18T06:35:01.061Z,41.55
2023-01-18T06:37:28.017Z,41.45
2023-01-18T06:39:54.817Z,41.31
2023-01-18T06:42:21.690Z,41.08
2023-01-18T06:44:48.521Z,41.30
2023-01-18T06:47:20.089Z,41.06
2023-01-18T06:49:48.239Z,40.82
2023-01-18T06:52:15.861Z,41.16
2023-01-18T06:54:42.955Z,41.02
2023-01-18T06:57:09.766Z,41.74
2023-01-18T06:59:36.590Z,41.25
2023-01-18T07:02:04.904Z,41.28
2023-01-18T07:04:35.462Z,41.12
2023-01-18T07:07:02.650Z,41.13
2023-01-18T07:09:29.628Z,40.95
2023-01-18T07:11:56.456Z,41.20
2023-01-18T07:14:23.289Z,40.70
2023-01-18T07:16:50.157Z,40.63
2023-01-18T07:19:17.027Z,41.19
2023-01-18T07:21:43.954Z,40.73
2023-01-18T07:24:11.359Z,40.61
2023-01-18T07:26:38.394Z,40.38
2023-01-18T07:29:05.336Z,39.97
2023-01-18T07:31:32.319Z,39.79
2023-01-18T07:34:00.237Z,39.72
2023-01-18T07:36:27.154Z,39.57
2023-01-18T07:38:54.011Z,39.04
2023-01-18T07:41:20.917Z,38.96
2023-01-18T07:43:47.807Z,33.53
2023-01-18T07:46:17.231Z,35.66
2023-01-18T07:48:45.005Z,35.38
2023-01-18T07:51:12.281Z,35.40
2023-01-18T07:53:39.205Z,35.65
2023-01-18T07:56:07.569Z,35.39
2023-01-18T07:58:36.003Z,35.47
2023-01-18T08:01:04.200Z,35.69
2023-01-18T08:03:31.091Z,35.37
2023-01-18T08:05:59.776Z,35.83
2023-01-18T08:08:29.016Z,35.66
2023-01-18T08:10:56.698Z,35.80
2023-01-18T08:13:24.749Z,36.19
2023-01-18T08:15:52.089Z,36.31
2023-01-18T08:18:19.158Z,36.39
2023-01-18T08:20:46.917Z,36.40
2023-01-18T08:23:13.762Z,36.24
2023-01-18T08:25:40.802Z,36.02
2023-01-18T08:28:07.693Z,36.46
2023-01-18T08:30:37.011Z,35.88
2023-01-18T08:33:04.396Z,36.25
2023-01-18T08:35:32.861Z,36.32
2023-01-18T08:38:00.462Z,36.67
2023-01-18T08:40:27.641Z,36.24
2023-01-18T08:42:59.061Z,35.92
2023-01-18T08:45:26.846Z,35.73
2023-01-18T08:48:02.858Z,35.74
2023-01-18T08:50:30.484Z,36.04
2023-01-18T08:53:00.446Z,35.91
2023-01-18T08:55:28.343Z,35.58
2023-01-18T08:57:55.427Z,35.91
2023-01-18T09:00:23.897Z,35.92
2023-01-18T09:02:52.043Z,35.39
2023-01-18T09:05:19.173Z,36.00
2023-01-18T09:07:46.523Z,35.43
2023-01-18T09:10:13.939Z,35.35
2023-01-18T09:12:40.959Z,35.58
2023-01-18T09:15:08.801Z,35.18
2023-01-18T09:17:36.085Z,35.37
2023-01-18T09:20:03.487Z,36.89
2023-01-18T09:22:30.397Z,37.54
2023-01-18T09:24:58.081Z,37.04
2023-01-18T09:27:25.104Z,36.55
2023-01-18T09:29:52.673Z,36.77
2023-01-18T09:32:20.338Z,36.54
2023-01-18T09:34:51.142Z,36.38
2023-01-18T09:37:19.498Z,36.55
2023-01-18T09:39:52.182Z,36.48
2023-01-18T09:42:22.383Z,36.09
2023-01-18T09:44:52.322Z,35.89
2023-01-18T09:47:22.431Z,35.81
2023-01-18T09:49:56.860Z,35.63
2023-01-18T09:52:31.837Z,35.91
2023-01-18T09:55:11.178Z,35.42
2023-01-18T09:57:46.299Z,35.65
2023-01-18T10:00:20.084Z,35.65
2023-01-18T10:02:48.934Z,35.23
2023-01-18T10:05:21.476Z,35.45
2023-01-18T10:07:55.515Z,35.07
2023-01-18T10:10:22.761Z,35.00
2023-01-18T10:12:54.927Z,35.05
2023-01-18T10:15:25.758Z,34.94
2023-01-18T10:17:56.708Z,34.73
2023-01-18T10:20:24.246Z,34.82
2023-01-18T10:23:01.192Z,34.90
2023-01-18T10:25:33.337Z,35.01
2023-01-18T10:28:07.664Z,34.96
2023-01-18T10:30:36.066Z,34.55
2023-01-18T10:33:07.666Z,34.68
2023-01-18T10:35:35.767Z,35.03
2023-01-18T10:38:06.492Z,35.07
2023-01-18T10:40:34.304Z,34.96
2023-01-18T10:43:04.883Z,35.16
2023-01-18T10:45:33.712Z,34.84
2023-01-18T10:48:09.881Z,35.40
2023-01-18T10:50:38.330Z,35.05
2023-01-18T10:53:14.642Z,35.26
2023-01-18T10:55:42.098Z,35.39
2023-01-18T10:58:14.671Z,35.35
2023-01-18T11:00:42.031Z,35.26
2023-01-18T11:03:14.167Z,35.37
2023-01-18T11:05:44.757Z,35.34
2023-01-18T11:08:22.806Z,35.55
2023-01-18T11:10:58.396Z,35.37
2023-01-18T11:13:25.761Z,35.65
2023-01-18T11:16:02.989Z,35.81
2023-01-18T11:18:29.994Z,35.70
2023-01-18T11:20:57.661Z,35.96
2023-01-18T11:23:37.946Z,35.66
2023-01-18T11:26:07.713Z,36.03
2023-01-18T11:28:36.544Z,35.92
2023-01-18T11:31:13.514Z,35.77
2023-01-18T11:33:49.416Z,35.95
2023-01-18T11:36:17.352Z,35.68
2023-01-18T11:38:44.475Z,35.78
2023-01-18T11:41:15.361Z,35.81
2023-01-18T11:43:46.061Z,35.58
2023-01-18T11:46:22.129Z,35.52
2023-01-18T11:48:52.834Z,35.67
2023-01-18T11:51:29.051Z,35.92
2023-01-18T11:54:05.412Z,35.74
2023-01-18T11:56:41.181Z,35.83
2023-01-18T11:59:14.413Z,35.98
2023-01-18T12:01:51.227Z,35.45
2023-01-18T12:04:26.958Z,35.69
2023-01-18T12:07:13.837Z,35.71
2023-01-18T12:09:50.886Z,35.89
2023-01-18T12:12:27.138Z,35.83
2023-01-18T12:15:03.247Z,35.53
2023-01-18T12:17:37.556Z,35.45
2023-01-18T12:20:08.659Z,35.84
2023-01-18T12:22:49.252Z,35.52
2023-01-18T12:25:22.051Z,35.55
2023-01-18T12:27:58.442Z,35.77
2023-01-18T12:30:32.071Z,35.83
2023-01-18T12:33:08.178Z,35.62
2023-01-18T12:35:42.633Z,35.45
2023-01-18T12:38:13.630Z,35.37
2023-01-18T12:40:44.016Z,35.47
2023-01-18T12:43:12.018Z,35.50
2023-01-18T12:45:40.571Z,35.53
2023-01-18T12:48:09.408Z,35.87
2023-01-18T12:50:38.205Z,35.54
2023-01-18T12:53:10.032Z,35.47
2023-01-18T12:55:40.158Z,35.68
2023-01-18T12:58:10.392Z,35.28
2023-01-18T13:00:39.095Z,35.21
2023-01-18T13:03:11.595Z,35.01
2023-01-18T13:05:52.935Z,35.51
2023-01-18T13:08:27.794Z,35.07
2023-01-18T13:11:01.944Z,35.53
2023-01-18T13:13:29.722Z,35.30
2023-01-18T13:16:06.103Z,35.37
2023-01-18T13:18:37.216Z,35.37
2023-01-18T13:21:06.054Z,35.24
2023-01-18T13:23:43.194Z,34.91
2023-01-18T13:26:13.554Z,35.43
2023-01-18T13:28:40.615Z,35.02
2023-01-18T13:31:08.173Z,35.43
2023-01-18T13:33:37.307Z,35.06
2023-01-18T13:36:09.408Z,35.24
2023-01-18T13:38:41.823Z,35.34
2023-01-18T13:41:12.770Z,35.52
2023-01-18T13:43:42.359Z,35.36
2023-01-18T13:46:10.102Z,35.68
2023-01-18T13:48:42.453Z,35.27
2023-01-18T13:51:09.704Z,35.49
2023-01-18T13:53:48.876Z,35.81
2023-01-18T13:56:26.051Z,35.67
2023-01-18T13:58:55.486Z,35.67
2023-01-18T14:01:24.671Z,35.65
2023-01-18T14:03:52.726Z,36.04
2023-01-18T14:06:21.100Z,35.78
2023-01-18T14:08:50.857Z,35.91
2023-01-18T14:11:25.033Z,36.23
2023-01-18T14:13:53.622Z,36.20
2023-01-18T14:16:25.638Z,35.84
2023-01-18T14:18:58.895Z,35.90
2023-01-18T14:21:27.345Z,36.45
2023-01-18T14:24:06.532Z,36.12
2023-01-18T14:26:36.063Z,36.20
2023-01-18T14:29:06.685Z,36.61
2023-01-18T14:31:36.491Z,36.25
2023-01-18T14:34:13.791Z,36.44
2023-01-18T14:36:40.846Z,36.35
2023-01-18T14:39:13.105Z,36.28
2023-01-18T14:41:43.779Z,36.57
2023-01-18T14:44:15.693Z,36.88
2023-01-18T14:46:43.396Z,36.88
2023-01-18T14:49:15.667Z,36.48
2023-01-18T14:51:48.211Z,36.65
2023-01-18T14:54:17.559Z,36.34
2023-01-18T14:56:44.769Z,36.37
2023-01-18T14:59:21.404Z,36.40
2023-01-18T15:01:53.681Z,36.51
2023-01-18T15:04:25.265Z,36.57
2023-01-18T15:06:55.903Z,36.44
2023-01-18T15:09:24.274Z,36.35
2023-01-18T15:11:53.868Z,36.06
2023-01-18T15:14:22.758Z,36.50
2023-01-18T15:16:51.845Z,36.21
2023-01-18T15:19:21.976Z,36.02
2023-01-18T15:21:49.449Z,36.23
2023-01-18T15:24:21.337Z,36.31
2023-01-18T15:26:57.403Z,36.29
2023-01-18T15:29:26.441Z,36.17
2023-01-18T15:31:55.979Z,35.90
2023-01-18T15:34:32.177Z,35.76
2023-01-18T15:37:00.971Z,35.71
2023-01-18T15:39:28.533Z,35.80
2023-01-18T15:41:57.617Z,36.01
2023-01-18T15:44:34.124Z,35.85
2023-01-18T15:47:01.852Z,35.22
2023-01-18T15:49:29.347Z,35.31
2023-01-18T15:51:57.820Z,35.76
2023-01-18T15:54:26.781Z,35.66
2023-01-18T15:56:56.585Z,35.28
2023-01-18T15:59:25.534Z,35.54
2023-01-18T16:02:02.285Z,35.75
2023-01-18T16:04:30.164Z,35.33
2023-01-18T16:06:57.442Z,35.18
2023-01-18T16:09:24.726Z,35.32
2023-01-18T16:11:54.787Z,35.34
2023-01-18T16:14:26.180Z,35.26
2023-01-18T16:16:54.333Z,35.32
2023-01-18T16:19:22.774Z,35.20
2023-01-18T16:21:52.049Z,35.71
2023-01-18T16:24:23.893Z,35.40
2023-01-18T16:26:51.032Z,35.58
2023-01-18T16:29:18.443Z,35.35
2023-01-18T16:31:46.107Z,35.36
2023-01-18T16:34:22.283Z,35.34
2023-01-18T16:36:49.901Z,35.38
2023-01-18T16:39:17.081Z,35.37
2023-01-18T16:41:49.593Z,35.37
2023-01-18T16:44:17.011Z,35.53
2023-01-18T16:46:45.582Z,35.43
2023-01-18T16:49:13.442Z,35.79
2023-01-18T16:51:41.339Z,35.82
2023-01-18T16:54:09.163Z,35.51
2023-01-18T16:56:36.378Z,35.76
2023-01-18T16:59:11.332Z,35.78
2023-01-18T17:01:38.861Z,35.66
2023-01-18T17:04:07.037Z,36.02
2023-01-18T17:06:34.529Z,36.03
2023-01-18T17:09:01.838Z,35.65
2023-01-18T17:11:29.088Z,36.07
2023-01-18T17:13:56.373Z,36.08
2023-01-18T17:16:23.712Z,36.11
2023-01-18T17:18:51.174Z,36.07
2023-01-18T17:21:18.658Z,35.76
2023-01-18T17:23:45.800Z,36.07
2023-01-18T17:26:15.758Z,36.24
2023-01-18T17:28:43.044Z,36.31
2023-01-18T17:31:10.697Z,36.06
2023-01-18T17:33:40.855Z,36.35
2023-01-18T17:36:09.434Z,36.39
2023-01-18T17:38:36.460Z,36.32
2023-01-18T17:41:03.633Z,36.37
2023-01-18T17:43:34.622Z,36.49
2023-01-18T17:46:04.177Z,36.28
2023-01-18T17:48:31.530Z,36.57
2023-01-18T17:50:59.222Z,36.66
2023-01-18T17:53:26.561Z,36.23
2023-01-18T17:55:54.328Z,36.35
2023-01-18T17:58:21.649Z,36.41
2023-01-18T18:00:49.236Z,36.23
2023-01-18T18:03:16.747Z,36.63
2023-01-18T18:05:44.358Z,36.59
2023-01-18T18:08:11.538Z,36.50
2023-01-18T18:10:38.707Z,36.90
2023-01-18T18:13:05.817Z,37.06
2023-01-18T18:15:33.163Z,37.09
2023-01-18T18:18:00.520Z,36.79
2023-01-18T18:20:27.920Z,36.96
2023-01-18T18:22:55.522Z,36.96
2023-01-18T18:25:22.586Z,37.06
2023-01-18T18:27:49.733Z,36.88
2023-01-18T18:30:18.181Z,36.99
2023-01-18T18:32:45.494Z,37.08
2023-01-18T18:35:24.343Z,37.55
2023-01-18T18:37:52.306Z,37.54
2023-01-18T18:40:19.848Z,37.56
2023-01-18T18:43:00.763Z,37.49
2023-01-18T18:45:29.097Z,37.29
2023-01-18T18:47:56.124Z,37.40
2023-01-18T18:50:23.242Z,37.09
2023-01-18T18:52:50.275Z,37.61
2023-01-18T18:55:18.337Z,37.85
2023-01-18T18:57:46.666Z,37.68
2023-01-18T19:00:14.727Z,37.43
2023-01-18T19:02:42.123Z,37.43
2023-01-18T19:05:11.010Z,37.80
2023-01-18T19:07:38.071Z,37.85
2023-01-18T19:10:06.182Z,37.85
2023-01-18T19:12:33.413Z,37.53
2023-01-18T19:15:00.532Z,37.87
2023-01-18T19:17:30.833Z,37.58
2023-01-18T19:19:59.196Z,37.94
2023-01-18T19:22:26.617Z,37.86
2023-01-18T19:24:53.425Z,37.96
2023-01-18T19:27:21.688Z,37.80
2023-01-18T19:29:49.040Z,37.67
2023-01-18T19:32:16.379Z,37.74
2023-01-18T19:34:43.186Z,38.07
2023-01-18T19:37:10.069Z,38.12
2023-01-18T19:39:37.163Z,38.28
2023-01-18T19:42:04.981Z,38.07
2023-01-18T19:44:31.961Z,38.15
2023-01-18T19:46:58.996Z,37.99
2023-01-18T19:49:26.280Z,37.90
2023-01-18T19:51:54.860Z,37.98
2023-01-18T19:54:22.088Z,38.19
2023-01-18T19:56:49.302Z,38.17
2023-01-18T19:59:16.216Z,38.21
2023-01-18T20:01:43.250Z,38.53
2023-01-18T20:04:10.270Z,38.15
2023-01-18T20:06:38.864Z,38.55
2023-01-18T20:09:17.740Z,38.54
2023-01-18T20:11:45.680Z,38.36
2023-01-18T20:14:12.738Z,38.39
2023-01-18T20:16:40.069Z,38.65
2023-01-18T20:19:07.159Z,38.71
2023-01-18T20:21:34.221Z,38.37
2023-01-18T20:24:01.343Z,38.66
2023-01-18T20:26:36.692Z,38.84
2023-01-18T20:29:07.468Z,38.72
2023-01-18T20:31:36.697Z,38.67
2023-01-18T20:34:04.307Z,38.86
2023-01-18T20:36:31.371Z,38.71
2023-01-18T20:38:58.222Z,38.97
2023-01-18T20:41:25.258Z,38.65
2023-01-18T20:43:52.918Z,38.85
2023-01-18T20:46:19.913Z,38.59
2023-01-18T20:48:46.759Z,38.93
2023-01-18T20:51:13.972Z,39.11
2023-01-18T20:53:40.831Z,39.00
2023-01-18T20:56:17.055Z,38.83
2023-01-18T20:58:54.881Z,38.87
2023-01-18T21:01:21.925Z,38.86
2023-01-18T21:03:55.824Z,38.80
2023-01-18T21:06:22.873Z,38.90
2023-01-18T21:08:52.027Z,38.90
2023-01-18T21:11:18.938Z,39.23
2023-01-18T21:13:45.678Z,39.14
2023-01-18T21:16:12.890Z,39.73
2023-01-18T21:18:39.921Z,39.69
2023-01-18T21:21:06.821Z,39.78
2023-01-18T21:23:39.704Z,39.94
2023-01-18T21:26:07.993Z,40.26
2023-01-18T21:28:34.973Z,40.31
2023-01-18T21:31:02.045Z,40.25
2023-01-18T21:33:29.446Z,39.89
2023-01-18T21:35:56.559Z,40.00
2023-01-18T21:38:23.593Z,40.04
2023-01-18T21:40:50.544Z,39.76
2023-01-18T21:43:28.911Z,39.50
2023-01-18T21:45:55.708Z,39.52
2023-01-18T21:48:23.389Z,39.88
2023-01-18T21:50:59.946Z,39.80
2023-01-18T21:53:35.868Z,39.85
2023-01-18T21:56:02.648Z,40.35
2023-01-18T21:58:39.272Z,39.91
2023-01-18T22:01:15.092Z,40.29
2023-01-18T22:03:42.152Z,40.24
2023-01-18T22:06:09.351Z,40.36
2023-01-18T22:08:36.298Z,39.93
2023-01-18T22:11:03.170Z,40.25
2023-01-18T22:13:29.952Z,40.09
2023-01-18T22:15:56.942Z,40.21
2023-01-18T22:18:23.699Z,39.85
2023-01-18T22:21:00.152Z,39.91
2023-01-18T22:23:27.350Z,39.76
2023-01-18T22:25:54.772Z,39.90
2023-01-18T22:28:22.013Z,39.71
2023-01-18T22:30:49.316Z,39.77
2023-01-18T22:33:17.639Z,39.67
2023-01-18T22:35:44.459Z,39.86
2023-01-18T22:38:12.597Z,39.84
2023-01-18T22:40:39.423Z,39.93
2023-01-18T22:43:06.159Z,39.99
2023-01-18T22:45:32.955Z,39.68
2023-01-18T22:48:00.078Z,39.77
2023-01-18T22:50:27.189Z,39.58
2023-01-18T22:52:54.344Z,39.83
2023-01-18T22:55:21.522Z,39.80
2023-01-18T22:57:48.256Z,39.86
2023-01-18T23:00:15.516Z,39.46
2023-01-18T23:02:42.330Z,39.84
2023-01-18T23:05:09.388Z,40.08
2023-01-18T23:07:36.143Z,39.88
2023-01-18T23:10:03.002Z,39.77
2023-01-18T23:12:29.728Z,39.54
2023-01-18T23:15:06.023Z,39.67
2023-01-18T23:17:42.014Z,39.44
2023-01-18T23:20:11.350Z,39.23
2023-01-18T23:22:38.582Z,39.41
2023-01-18T23:25:05.547Z,39.26
2023-01-18T23:27:32.365Z,39.60
2023-01-18T23:29:59.438Z,39.13
2023-01-18T23:32:27.428Z,39.03
2023-01-18T23:34:55.521Z,39.66
2023-01-18T23:37:22.594Z,39.30
2023-01-18T23:39:59.038Z,39.34
2023-01-18T23:42:35.305Z,39.10
2023-01-18T23:45:11.823Z,39.01
2023-01-18T23:47:48.303Z,39.19
2023-01-18T23:50:24.943Z,39.43
2023-01-18T23:53:01.156Z,38.83
2023-01-18T23:55:27.959Z,38.89
2023-01-18T23:57:54.639Z,39.13
